createdAt,value
2022-12-26T00:01:11.510Z,12.09
2022-12-26T00:03:39.894Z,12.18
2022-12-26T00:06:16.233Z,12.26
2022-12-26T00:08:44.690Z,12.02
2022-12-26T00:11:12.747Z,12.02
2022-12-26T00:13:41.781Z,12.24
2022-12-26T00:16:16.003Z,12.28
2022-12-26T00:18:44.967Z,12.40
2022-12-26T00:21:14.187Z,12.61
2022-12-26T00:23:43.080Z,12.57
2022-12-26T00:26:13.052Z,12.57
2022-12-26T00:28:41.307Z,12.32
2022-12-26T00:31:12.518Z,12.32
2022-12-26T00:33:40.911Z,12.39
2022-12-26T00:36:14.201Z,12.43
2022-12-26T00:38:43.675Z,12.73
2022-12-26T00:41:12.023Z,12.46
2022-12-26T00:43:39.641Z,12.20
2022-12-26T00:46:08.387Z,12.26
2022-12-26T00:48:36.442Z,12.57
2022-12-26T00:51:04.411Z,12.52
2022-12-26T00:53:33.216Z,12.43
2022-12-26T00:56:01.141Z,12.29
2022-12-26T00:58:29.917Z,12.12
2022-12-26T01:01:31.135Z,12.18
2022-12-26T01:03:59.174Z,12.23
2022-12-26T01:06:27.272Z,12.41
2022-12-26T01:08:55.043Z,12.32
2022-12-26T01:11:40.835Z,12.18
2022-12-26T01:14:14.475Z,12.26
2022-12-26T01:16:44.131Z,12.05
2022-12-26T01:19:12.969Z,12.14
2022-12-26T01:21:42.178Z,12.02
2022-12-26T01:24:09.870Z,12.00
2022-12-26T01:26:37.759Z,11.87
2022-12-26T01:29:05.513Z,12.25
2022-12-26T01:31:33.066Z,12.21
2022-12-26T01:34:01.315Z,12.17
2022-12-26T01:36:28.891Z,12.04
2022-12-26T01:38:56.432Z,11.91
2022-12-26T01:41:24.344Z,11.80
2022-12-26T01:43:53.488Z,11.52
2022-12-26T01:46:26.727Z,11.50
2022-12-26T01:48:56.720Z,11.44
2022-12-26T01:51:25.883Z,11.52
2022-12-26T01:54:39.887Z,11.29
2022-12-26T01:56:45.686Z,11.21
2022-12-26T01:59:19.879Z,11.27
2022-12-26T02:01:49.619Z,11.13
2022-12-26T02:04:51.608Z,11.40
2022-12-26T02:07:20.465Z,11.33
2022-12-26T02:09:48.086Z,11.23
2022-12-26T02:12:34.204Z,11.25
2022-12-26T02:15:14.037Z,10.99
2022-12-26T02:17:41.921Z,10.76
2022-12-26T02:20:12.975Z,10.66
2022-12-26T02:22:51.795Z,10.69
2022-12-26T02:25:31.868Z,11.00
2022-12-26T02:28:16.710Z,10.72
2022-12-26T02:30:51.295Z,10.27
2022-12-26T02:33:22.345Z,10.54
2022-12-26T02:36:15.554Z,10.63
2022-12-26T02:38:58.791Z,10.46
2022-12-26T02:41:31.526Z,10.36
2022-12-26T02:44:36.494Z,10.44
2022-12-26T02:47:26.555Z,10.52
2022-12-26T02:50:38.249Z,10.39
2022-12-26T02:53:42.826Z,10.11
2022-12-26T02:56:39.091Z,10.34
2022-12-26T02:59:55.188Z,10.29
2022-12-26T03:03:14.456Z,10.37
2022-12-26T03:06:06.399Z,10.37
2022-12-26T03:08:56.956Z,10.38
2022-12-26T03:11:48.420Z,10.33
2022-12-26T03:14:20.991Z,10.44
2022-12-26T03:17:09.891Z,10.51
2022-12-26T03:19:58.153Z,10.34
2022-12-26T03:22:31.390Z,10.27
2022-12-26T03:25:28.266Z,10.28
2022-12-26T03:27:58.828Z,10.35
2022-12-26T03:30:44.939Z,9.66
2022-12-26T03:33:31.337Z,9.93
2022-12-26T03:36:00.204Z,9.84
2022-12-26T03:38:35.829Z,9.90
2022-12-26T03:41:36.481Z,9.82
2022-12-26T03:44:45.268Z,10.10
2022-12-26T03:47:33.503Z,9.97
2022-12-26T03:50:25.779Z,10.08
2022-12-26T03:53:21.482Z,9.87
2022-12-26T03:56:15.890Z,9.69
2022-12-26T03:59:35.476Z,9.98
2022-12-26T04:02:25.138Z,9.96
2022-12-26T04:05:13.904Z,9.10
2022-12-26T04:08:11.106Z,9.51
2022-12-26T04:11:07.322Z,9.31
2022-12-26T04:14:13.673Z,9.67
2022-12-26T04:17:23.915Z,9.70
2022-12-26T04:20:00.435Z,9.68
2022-12-26T04:22:56.741Z,9.73
2022-12-26T04:25:48.541Z,9.54
2022-12-26T04:28:39.484Z,9.56
2022-12-26T04:31:28.521Z,9.67
2022-12-26T04:34:18.464Z,9.67
2022-12-26T04:37:20.946Z,9.43
2022-12-26T04:40:10.785Z,9.48
2022-12-26T04:42:58.629Z,9.30
2022-12-26T04:45:28.719Z,9.35
2022-12-26T04:48:15.239Z,9.31
2022-12-26T04:50:51.812Z,9.27
2022-12-26T04:53:20.438Z,9.49
2022-12-26T04:55:48.438Z,9.46
2022-12-26T04:58:17.911Z,9.48
2022-12-26T05:00:45.349Z,9.29
2022-12-26T05:03:33.197Z,9.26
2022-12-26T05:06:19.787Z,9.21
2022-12-26T05:09:07.125Z,9.26
2022-12-26T05:11:35.421Z,8.98
2022-12-26T05:14:03.309Z,9.09
2022-12-26T05:16:49.995Z,9.06
2022-12-26T05:19:36.774Z,9.17
2022-12-26T05:22:23.382Z,9.08
2022-12-26T05:25:10.991Z,9.18
2022-12-26T05:28:00.748Z,9.27
2022-12-26T05:30:29.239Z,9.14
2022-12-26T05:33:15.467Z,8.99
2022-12-26T05:35:43.708Z,9.01
2022-12-26T05:38:12.071Z,9.11
2022-12-26T05:40:39.760Z,9.14
2022-12-26T05:43:08.063Z,9.22
2022-12-26T05:45:35.713Z,9.02
2022-12-26T05:48:03.402Z,9.13
2022-12-26T05:50:31.817Z,9.21
2022-12-26T05:52:59.910Z,9.29
2022-12-26T05:55:27.459Z,9.05
2022-12-26T05:57:56.868Z,9.14
2022-12-26T06:00:24.406Z,9.18
2022-12-26T06:02:52.333Z,9.25
2022-12-26T06:05:20.119Z,9.44
2022-12-26T06:07:48.152Z,9.28
2022-12-26T06:10:16.154Z,9.27
2022-12-26T06:12:43.943Z,9.20
2022-12-26T06:15:12.823Z,9.22
2022-12-26T06:17:41.030Z,9.13
2022-12-26T06:20:08.954Z,8.66
2022-12-26T06:22:36.907Z,8.72
2022-12-26T06:25:05.254Z,8.50
2022-12-26T06:27:33.027Z,8.71
2022-12-26T06:30:00.594Z,8.74
2022-12-26T06:32:28.777Z,8.57
2022-12-26T06:34:56.363Z,8.55
2022-12-26T06:37:23.749Z,8.62
2022-12-26T06:39:51.676Z,8.85
2022-12-26T06:42:19.458Z,8.62
2022-12-26T06:44:47.074Z,8.54
2022-12-26T06:47:14.887Z,8.49
2022-12-26T06:49:42.475Z,8.59
2022-12-26T06:52:11.194Z,8.57
2022-12-26T06:54:39.465Z,8.84
2022-12-26T06:57:07.515Z,8.60
2022-12-26T06:59:35.031Z,8.49
2022-12-26T07:02:03.250Z,8.33
2022-12-26T07:04:31.184Z,8.38
2022-12-26T07:06:58.662Z,8.55
2022-12-26T07:09:31.583Z,8.74
2022-12-26T07:12:01.267Z,8.51
2022-12-26T07:14:29.472Z,8.50
2022-12-26T07:16:57.059Z,8.56
2022-12-26T07:19:25.328Z,8.53
2022-12-26T07:21:53.029Z,8.70
2022-12-26T07:24:22.053Z,8.45
2022-12-26T07:26:49.745Z,8.83
2022-12-26T07:29:18.514Z,8.58
2022-12-26T07:31:46.010Z,8.71
2022-12-26T07:34:14.006Z,8.57
2022-12-26T07:36:44.645Z,8.64
2022-12-26T07:39:13.886Z,8.68
2022-12-26T07:42:00.635Z,8.85
2022-12-26T07:44:30.595Z,8.69
2022-12-26T07:47:01.688Z,9.14
2022-12-26T07:49:29.584Z,8.98
2022-12-26T07:51:57.396Z,8.58
2022-12-26T07:54:28.227Z,8.92
2022-12-26T07:57:15.142Z,8.97
2022-12-26T07:59:44.474Z,8.91
2022-12-26T08:02:16.209Z,9.17
2022-12-26T08:04:44.233Z,8.72
2022-12-26T08:07:12.390Z,8.87
2022-12-26T08:09:42.999Z,8.84
2022-12-26T08:12:11.911Z,8.88
2022-12-26T08:14:40.362Z,9.29
2022-12-26T08:17:11.261Z,9.10
2022-12-26T08:19:40.069Z,8.92
2022-12-26T08:22:08.279Z,9.05
2022-12-26T08:24:35.788Z,9.02
2022-12-26T08:27:04.842Z,9.34
2022-12-26T08:29:32.558Z,9.29
2022-12-26T08:32:00.719Z,9.32
2022-12-26T08:34:33.711Z,9.32
2022-12-26T08:37:01.744Z,9.10
2022-12-26T08:39:29.847Z,9.17
2022-12-26T08:41:57.246Z,9.26
2022-12-26T08:44:27.722Z,9.42
2022-12-26T08:46:55.789Z,9.18
2022-12-26T08:49:23.318Z,8.95
2022-12-26T08:51:50.717Z,9.18
2022-12-26T08:54:18.753Z,9.43
2022-12-26T08:56:46.295Z,9.32
2022-12-26T08:59:14.735Z,9.46
2022-12-26T09:01:42.537Z,9.55
2022-12-26T09:04:10.140Z,9.47
2022-12-26T09:06:39.528Z,9.74
2022-12-26T09:09:08.623Z,9.87
2022-12-26T09:11:35.999Z,9.79
2022-12-26T09:14:04.563Z,10.05
2022-12-26T09:16:39.379Z,10.24
2022-12-26T09:19:12.549Z,10.03
2022-12-26T09:21:40.765Z,10.27
2022-12-26T09:24:13.060Z,10.52
2022-12-26T09:26:41.290Z,10.37
2022-12-26T09:29:11.533Z,10.43
2022-12-26T09:31:40.385Z,10.51
2022-12-26T09:34:09.646Z,10.86
2022-12-26T09:36:38.278Z,11.06
2022-12-26T09:39:07.824Z,11.15
2022-12-26T09:41:38.873Z,10.83
2022-12-26T09:44:34.452Z,10.97
2022-12-26T09:47:16.660Z,11.41
2022-12-26T09:49:53.683Z,11.28
2022-12-26T09:52:34.385Z,11.61
2022-12-26T09:55:06.976Z,11.60
2022-12-26T09:57:40.552Z,11.93
2022-12-26T10:00:18.129Z,11.63
2022-12-26T10:02:52.392Z,12.23
2022-12-26T10:05:26.638Z,12.35
2022-12-26T10:07:58.367Z,12.86
2022-12-26T10:10:36.701Z,12.74
2022-12-26T10:13:15.311Z,12.84
2022-12-26T10:15:46.949Z,12.59
2022-12-26T10:18:27.013Z,12.49
2022-12-26T10:21:11.904Z,12.40
2022-12-26T10:23:43.234Z,12.67
2022-12-26T10:26:33.546Z,13.14
2022-12-26T10:29:28.533Z,13.04
2022-12-26T10:31:59.648Z,13.07
2022-12-26T10:34:41.021Z,12.85
2022-12-26T10:37:31.629Z,13.02
2022-12-26T10:40:02.240Z,13.02
2022-12-26T10:42:43.073Z,13.33
2022-12-26T10:45:19.969Z,13.40
2022-12-26T10:47:48.770Z,13.87
2022-12-26T10:50:26.977Z,13.90
2022-12-26T10:52:56.688Z,13.98
2022-12-26T10:55:31.597Z,14.18
2022-12-26T10:58:19.606Z,14.21
2022-12-26T11:00:47.433Z,13.55
2022-12-26T11:03:18.490Z,14.25
2022-12-26T11:06:06.869Z,13.69
2022-12-26T11:08:51.667Z,14.29
2022-12-26T11:11:46.299Z,14.05
2022-12-26T11:14:38.332Z,14.35
2022-12-26T11:17:13.934Z,13.92
2022-12-26T11:19:44.131Z,13.82
2022-12-26T11:22:20.506Z,14.12
2022-12-26T11:25:24.569Z,14.22
2022-12-26T11:27:54.894Z,14.37
2022-12-26T11:30:31.399Z,14.23
2022-12-26T11:33:17.484Z,14.60
2022-12-26T11:35:52.889Z,14.26
2022-12-26T11:38:44.540Z,13.94
2022-12-26T11:41:32.005Z,13.80
2022-12-26T11:44:23.073Z,14.45
2022-12-26T11:47:06.191Z,14.65
2022-12-26T11:49:36.321Z,14.08
2022-12-26T11:52:37.453Z,13.93
2022-12-26T11:55:23.832Z,13.98
2022-12-26T11:58:06.740Z,14.16
2022-12-26T12:00:42.521Z,13.84
2022-12-26T12:03:13.424Z,13.30
2022-12-26T12:06:02.114Z,13.60
2022-12-26T12:09:02.260Z,13.42
2022-12-26T12:11:56.640Z,13.42
2022-12-26T12:14:34.670Z,13.22
2022-12-26T12:17:08.943Z,13.44
2022-12-26T12:19:47.316Z,13.69
2022-12-26T12:22:29.783Z,13.76
2022-12-26T12:25:16.362Z,13.90
2022-12-26T12:27:53.906Z,13.89
2022-12-26T12:30:34.540Z,14.11
2022-12-26T12:33:18.359Z,13.95
2022-12-26T12:36:13.328Z,14.21
2022-12-26T12:38:56.765Z,14.16
2022-12-26T12:42:05.814Z,14.17
2022-12-26T12:45:01.161Z,14.56
2022-12-26T12:48:01.415Z,14.56
2022-12-26T12:50:43.290Z,14.79
2022-12-26T12:53:32.367Z,14.76
2022-12-26T12:56:07.507Z,14.72
2022-12-26T12:58:55.759Z,14.62
2022-12-26T13:01:28.347Z,14.68
2022-12-26T13:04:06.628Z,14.43
2022-12-26T13:06:53.816Z,14.43
2022-12-26T13:09:25.380Z,14.26
2022-12-26T13:12:00.861Z,14.39
2022-12-26T13:14:36.573Z,14.21
2022-12-26T13:17:26.179Z,14.16
2022-12-26T13:20:20.766Z,14.18
2022-12-26T13:23:17.726Z,14.08
2022-12-26T13:25:49.479Z,13.93
2022-12-26T13:28:21.582Z,14.24
2022-12-26T13:30:55.563Z,14.08
2022-12-26T13:33:23.085Z,13.96
2022-12-26T13:36:02.896Z,13.95
2022-12-26T13:38:58.553Z,14.23
2022-12-26T13:41:45.299Z,14.26
2022-12-26T13:44:18.689Z,14.02
2022-12-26T13:46:46.552Z,13.83
2022-12-26T13:49:36.524Z,14.23
2022-12-26T13:52:10.546Z,13.96
2022-12-26T13:55:07.024Z,13.61
2022-12-26T13:57:34.620Z,13.70
2022-12-26T14:00:04.527Z,13.43
2022-12-26T14:03:20.483Z,13.61
2022-12-26T14:06:12.499Z,13.52
2022-12-26T14:08:54.795Z,13.56
2022-12-26T14:11:35.220Z,13.41
2022-12-26T14:14:26.118Z,13.45
2022-12-26T14:17:19.936Z,13.45
2022-12-26T14:19:50.460Z,13.27
2022-12-26T14:22:41.289Z,13.13
2022-12-26T14:25:14.211Z,13.25
2022-12-26T14:27:49.846Z,13.44
2022-12-26T14:30:31.633Z,13.17
2022-12-26T14:33:27.372Z,13.12
2022-12-26T14:36:11.814Z,13.17
2022-12-26T14:38:47.998Z,13.16
2022-12-26T14:41:36.232Z,13.11
2022-12-26T14:44:37.953Z,12.98
2022-12-26T14:47:06.046Z,13.03
2022-12-26T14:49:35.720Z,12.99
2022-12-26T14:52:25.522Z,13.01
2022-12-26T14:54:53.860Z,13.02
2022-12-26T14:57:48.145Z,13.00
2022-12-26T15:00:28.492Z,12.97
2022-12-26T15:02:58.857Z,12.77
2022-12-26T15:08:13.958Z,12.74
2022-12-26T15:11:19.173Z,12.57
2022-12-26T15:13:55.794Z,12.30
2022-12-26T15:16:39.412Z,12.26
2022-12-26T15:19:36.235Z,11.97
2022-12-26T15:22:38.472Z,11.89
2022-12-26T15:25:19.860Z,11.89
2022-12-26T15:27:57.271Z,11.77
2022-12-26T15:31:03.765Z,11.66
2022-12-26T15:33:46.952Z,11.44
2022-12-26T15:36:22.778Z,11.39
2022-12-26T15:39:17.300Z,11.45
2022-12-26T15:41:47.951Z,11.39
2022-12-26T15:44:27.528Z,11.31
2022-12-26T15:47:01.272Z,11.33
2022-12-26T15:49:44.158Z,11.30
2022-12-26T15:52:33.796Z,11.30
2022-12-26T15:55:04.537Z,11.23
2022-12-26T15:57:51.138Z,11.44
2022-12-26T16:00:30.824Z,11.12
2022-12-26T16:03:10.747Z,10.94
2022-12-26T16:05:40.779Z,10.80
2022-12-26T16:08:27.175Z,10.84
2022-12-26T16:11:14.986Z,10.67
2022-12-26T16:13:54.604Z,10.57
2022-12-26T16:16:29.799Z,10.63
2022-12-26T16:18:58.139Z,10.62
2022-12-26T16:21:46.813Z,10.58
2022-12-26T16:24:16.825Z,10.41
2022-12-26T16:26:46.071Z,10.46
2022-12-26T16:29:18.335Z,10.50
2022-12-26T16:31:46.066Z,10.39
2022-12-26T16:34:18.208Z,10.38
2022-12-26T16:36:46.989Z,10.28
2022-12-26T16:39:22.338Z,10.23
2022-12-26T16:42:02.213Z,10.30
2022-12-26T16:44:37.328Z,10.16
2022-12-26T16:47:07.805Z,10.12
2022-12-26T16:49:36.309Z,10.09
2022-12-26T16:52:04.563Z,10.08
2022-12-26T16:54:40.273Z,10.04
2022-12-26T16:57:20.207Z,9.99
2022-12-26T16:59:57.575Z,10.00
2022-12-26T17:02:32.080Z,9.82
2022-12-26T17:05:05.949Z,9.74
2022-12-26T17:07:37.247Z,9.79
2022-12-26T17:10:09.330Z,10.19
2022-12-26T17:12:40.005Z,9.69
2022-12-26T17:15:08.420Z,9.46
2022-12-26T17:17:39.504Z,9.34
2022-12-26T17:20:23.009Z,9.63
2022-12-26T17:22:53.696Z,9.40
2022-12-26T17:25:21.493Z,9.37
2022-12-26T17:28:09.122Z,9.16
2022-12-26T17:30:38.798Z,9.10
2022-12-26T17:33:17.257Z,9.22
2022-12-26T17:36:44.652Z,9.25
2022-12-26T17:38:36.656Z,9.21
2022-12-26T17:41:05.936Z,9.13
2022-12-26T17:43:36.006Z,9.07
2022-12-26T17:46:05.450Z,9.03
2022-12-26T17:48:33.454Z,8.98
2022-12-26T17:51:06.167Z,8.88
2022-12-26T17:53:38.791Z,8.97
2022-12-26T17:56:08.186Z,8.94
2022-12-26T17:58:36.051Z,8.95
2022-12-26T18:01:04.086Z,9.04
2022-12-26T18:03:32.015Z,8.98
2022-12-26T18:05:59.722Z,8.84
2022-12-26T18:08:38.756Z,8.96
2022-12-26T18:11:11.339Z,8.90
2022-12-26T18:13:38.841Z,8.73
2022-12-26T18:16:07.299Z,8.68
2022-12-26T18:18:39.806Z,9.13
2022-12-26T18:21:10.334Z,8.59
2022-12-26T18:23:38.455Z,8.20
2022-12-26T18:26:08.809Z,8.17
2022-12-26T18:28:36.686Z,8.73
2022-12-26T18:31:04.349Z,8.50
2022-12-26T18:33:31.881Z,8.21
2022-12-26T18:36:05.828Z,7.95
2022-12-26T18:38:34.921Z,8.48
2022-12-26T18:41:02.747Z,8.25
2022-12-26T18:43:30.311Z,8.03
2022-12-26T18:45:57.761Z,8.00
2022-12-26T18:48:25.747Z,8.41
2022-12-26T18:50:53.263Z,8.00
2022-12-26T18:53:20.774Z,7.91
2022-12-26T18:55:48.608Z,7.86
2022-12-26T18:58:16.105Z,8.13
2022-12-26T19:00:43.698Z,7.94
2022-12-26T19:03:11.580Z,7.89
2022-12-26T19:05:39.278Z,7.84
2022-12-26T19:08:06.733Z,7.89
2022-12-26T19:10:35.193Z,7.95
2022-12-26T19:13:06.784Z,8.09
2022-12-26T19:15:35.460Z,8.06
2022-12-26T19:18:04.853Z,8.06
2022-12-26T19:20:32.731Z,8.17
2022-12-26T19:23:00.645Z,7.98
2022-12-26T19:25:28.782Z,7.98
2022-12-26T19:27:56.505Z,8.19
2022-12-26T19:30:24.340Z,8.34
2022-12-26T19:32:52.159Z,7.86
2022-12-26T19:35:19.848Z,7.70
2022-12-26T19:37:47.657Z,7.96
2022-12-26T19:40:18.420Z,7.76
2022-12-26T19:42:49.795Z,7.64
2022-12-26T19:45:17.428Z,7.58
2022-12-26T19:47:45.331Z,7.61
2022-12-26T19:50:14.191Z,7.50
2022-12-26T19:52:41.762Z,7.52
2022-12-26T19:55:11.554Z,7.71
2022-12-26T19:57:39.421Z,7.62
2022-12-26T20:00:07.721Z,7.61
2022-12-26T20:02:41.594Z,7.70
2022-12-26T20:05:10.006Z,7.55
2022-12-26T20:07:37.582Z,7.96
2022-12-26T20:10:05.577Z,7.80
2022-12-26T20:12:33.466Z,7.72
2022-12-26T20:15:01.137Z,7.95
2022-12-26T20:17:28.791Z,8.01
2022-12-26T20:19:56.637Z,7.79
2022-12-26T20:22:24.174Z,7.77
2022-12-26T20:24:51.791Z,8.05
2022-12-26T20:27:19.569Z,8.05
2022-12-26T20:29:47.442Z,7.86
2022-12-26T20:32:15.019Z,8.08
2022-12-26T20:34:42.905Z,8.23
2022-12-26T20:37:10.441Z,8.10
2022-12-26T20:39:37.956Z,8.03
2022-12-26T20:42:05.883Z,8.22
2022-12-26T20:44:33.483Z,8.25
2022-12-26T20:47:00.987Z,8.30
2022-12-26T20:49:29.164Z,8.26
2022-12-26T20:51:56.709Z,8.33
2022-12-26T20:54:24.874Z,8.32
2022-12-26T20:56:52.929Z,8.76
2022-12-26T20:59:20.478Z,8.52
2022-12-26T21:01:48.070Z,8.42
2022-12-26T21:04:18.917Z,8.97
2022-12-26T21:06:47.717Z,8.69
2022-12-26T21:09:15.863Z,8.58
2022-12-26T21:11:45.323Z,8.74
2022-12-26T21:14:16.578Z,8.63
2022-12-26T21:16:51.021Z,8.53
2022-12-26T21:19:19.547Z,8.68
2022-12-26T21:21:50.268Z,8.96
2022-12-26T21:24:26.492Z,8.78
2022-12-26T21:26:55.416Z,8.82
2022-12-26T21:29:26.264Z,8.73
2022-12-26T21:31:54.915Z,8.85
2022-12-26T21:34:24.857Z,8.83
2022-12-26T21:37:11.588Z,8.94
2022-12-26T21:39:41.507Z,8.93
2022-12-26T21:42:09.785Z,8.93
2022-12-26T21:44:37.938Z,8.88
2022-12-26T21:47:08.273Z,9.00
2022-12-26T21:49:37.080Z,9.07
2022-12-26T21:52:06.347Z,9.07
2022-12-26T21:54:53.628Z,9.16
2022-12-26T21:57:21.687Z,9.04
2022-12-26T21:59:56.271Z,9.06
2022-12-26T22:02:49.398Z,9.19
2022-12-26T22:05:19.501Z,9.07
2022-12-26T22:07:47.568Z,9.06
2022-12-26T22:10:33.726Z,9.10
2022-12-26T22:13:02.359Z,9.06
2022-12-26T22:15:48.700Z,9.18
2022-12-26T22:18:16.904Z,9.11
2022-12-26T22:20:45.917Z,9.43
2022-12-26T22:23:13.843Z,9.31
2022-12-26T22:25:41.675Z,9.23
2022-12-26T22:28:09.243Z,9.28
2022-12-26T22:30:36.779Z,9.26
2022-12-26T22:33:04.724Z,9.30
2022-12-26T22:35:32.980Z,9.64
2022-12-26T22:38:00.360Z,9.76
2022-12-26T22:40:28.219Z,9.29
2022-12-26T22:42:55.790Z,9.14
2022-12-26T22:45:23.676Z,9.15
2022-12-26T22:47:51.447Z,9.21
2022-12-26T22:50:18.908Z,9.34
2022-12-26T22:52:46.380Z,9.35
2022-12-26T22:55:14.548Z,9.24
2022-12-26T22:57:42.220Z,9.20
2022-12-26T23:00:13.109Z,9.27
2022-12-26T23:02:41.030Z,9.40
2022-12-26T23:05:10.977Z,9.36
2022-12-26T23:07:38.864Z,9.36
2022-12-26T23:10:08.010Z,9.23
2022-12-26T23:12:45.026Z,9.41
2022-12-26T23:15:14.260Z,9.42
2022-12-26T23:18:05.238Z,9.45
2022-12-26T23:20:54.319Z,9.45
2022-12-26T23:23:23.400Z,9.43
2022-12-26T23:25:51.262Z,9.58
2022-12-26T23:28:37.754Z,9.52
2022-12-26T23:31:05.680Z,9.43
2022-12-26T23:33:33.215Z,9.41
2022-12-26T23:36:00.847Z,9.45
2022-12-26T23:38:28.691Z,9.45
2022-12-26T23:40:56.195Z,9.60
2022-12-26T23:43:23.748Z,9.44
2022-12-26T23:45:51.573Z,9.19
2022-12-26T23:48:19.209Z,9.12
2022-12-26T23:50:46.729Z,9.10
2022-12-26T23:53:14.491Z,9.12
2022-12-26T23:55:42.009Z,9.36
2022-12-26T23:58:09.605Z,9.45
